sensor_id;sensor_type;location;lat;lon;timestamp;temperature;humidity
72591;SHT31;60625;51.212;5.952;2022-10-31T00:00:16;15.43;81.88
72591;SHT31;60625;51.212;5.952;2022-10-31T00:05:16;15.42;81.79
72591;SHT31;60625;51.212;5.952;2022-10-31T00:10:17;15.41;81.75
72591;SHT31;60625;51.212;5.952;2022-10-31T00:15:17;15.39;81.56
72591;SHT31;60625;51.212;5.952;2022-10-31T00:20:18;15.28;81.76
72591;SHT31;60625;51.212;5.952;2022-10-31T00:25:18;15.18;81.50
72591;SHT31;60625;51.212;5.952;2022-10-31T00:30:20;15.03;81.28
72591;SHT31;60625;51.212;5.952;2022-10-31T00:35:21;14.93;81.86
72591;SHT31;60625;51.212;5.952;2022-10-31T00:40:21;14.90;81.96
72591;SHT31;60625;51.212;5.952;2022-10-31T00:45:22;14.85;81.81
72591;SHT31;60625;51.212;5.952;2022-10-31T00:50:22;14.86;81.89
72591;SHT31;60625;51.212;5.952;2022-10-31T00:55:23;14.78;81.82
72591;SHT31;60625;51.212;5.952;2022-10-31T01:00:25;14.69;82.26
72591;SHT31;60625;51.212;5.952;2022-10-31T01:05:26;14.67;82.53
72591;SHT31;60625;51.212;5.952;2022-10-31T01:10:26;14.68;82.25
72591;SHT31;60625;51.212;5.952;2022-10-31T01:15:27;14.67;82.30
72591;SHT31;60625;51.212;5.952;2022-10-31T01:20:27;14.66;82.56
72591;SHT31;60625;51.212;5.952;2022-10-31T01:25:28;14.66;82.76
72591;SHT31;60625;51.212;5.952;2022-10-31T01:30:28;14.67;82.81
72591;SHT31;60625;51.212;5.952;2022-10-31T01:35:28;14.68;82.91
72591;SHT31;60625;51.212;5.952;2022-10-31T01:40:29;14.66;82.94
72591;SHT31;60625;51.212;5.952;2022-10-31T01:45:30;14.64;82.96
72591;SHT31;60625;51.212;5.952;2022-10-31T01:50:32;14.63;83.01
72591;SHT31;60625;51.212;5.952;2022-10-31T01:55:41;14.57;82.72
72591;SHT31;60625;51.212;5.952;2022-10-31T02:00:49;14.53;82.93
72591;SHT31;60625;51.212;5.952;2022-10-31T02:05:55;14.48;83.11
72591;SHT31;60625;51.212;5.952;2022-10-31T02:10:56;14.39;83.49
72591;SHT31;60625;51.212;5.952;2022-10-31T02:15:59;14.28;83.81
72591;SHT31;60625;51.212;5.952;2022-10-31T02:31:57;14.26;83.39
72591;SHT31;60625;51.212;5.952;2022-10-31T02:42:48;14.07;83.36
72591;SHT31;60625;51.212;5.952;2022-10-31T02:48:12;14.01;83.09
72591;SHT31;60625;51.212;5.952;2022-10-31T02:53:18;14.00;83.17
72591;SHT31;60625;51.212;5.952;2022-10-31T02:58:21;13.95;83.14
72591;SHT31;60625;51.212;5.952;2022-10-31T03:03:42;13.80;83.22
72591;SHT31;60625;51.212;5.952;2022-10-31T03:19:49;13.76;84.03
72591;SHT31;60625;51.212;5.952;2022-10-31T03:24:56;13.73;83.99
72591;SHT31;60625;51.212;5.952;2022-10-31T03:30:00;13.76;84.51
72591;SHT31;60625;51.212;5.952;2022-10-31T03:35:09;13.74;84.75
72591;SHT31;60625;51.212;5.952;2022-10-31T03:40:13;13.68;84.65
72591;SHT31;60625;51.212;5.952;2022-10-31T03:45:17;13.61;84.35
72591;SHT31;60625;51.212;5.952;2022-10-31T03:50:26;13.57;84.50
72591;SHT31;60625;51.212;5.952;2022-10-31T03:55:41;13.56;84.50
72591;SHT31;60625;51.212;5.952;2022-10-31T04:00:51;13.51;84.60
72591;SHT31;60625;51.212;5.952;2022-10-31T04:05:55;13.53;84.28
72591;SHT31;60625;51.212;5.952;2022-10-31T04:10:59;13.51;84.21
72591;SHT31;60625;51.212;5.952;2022-10-31T04:16:02;13.50;84.28
72591;SHT31;60625;51.212;5.952;2022-10-31T04:21:06;13.49;84.40
72591;SHT31;60625;51.212;5.952;2022-10-31T04:26:08;13.48;84.40
72591;SHT31;60625;51.212;5.952;2022-10-31T04:31:12;13.45;84.24
72591;SHT31;60625;51.212;5.952;2022-10-31T04:36:13;13.41;84.27
72591;SHT31;60625;51.212;5.952;2022-10-31T04:41:15;13.36;84.32
72591;SHT31;60625;51.212;5.952;2022-10-31T04:46:28;13.31;84.28
72591;SHT31;60625;51.212;5.952;2022-10-31T04:51:30;13.26;84.14
72591;SHT31;60625;51.212;5.952;2022-10-31T04:56:30;13.20;84.04
72591;SHT31;60625;51.212;5.952;2022-10-31T05:01:33;13.19;84.08
72591;SHT31;60625;51.212;5.952;2022-10-31T05:06:34;13.17;84.01
72591;SHT31;60625;51.212;5.952;2022-10-31T05:11:34;13.11;84.07
72591;SHT31;60625;51.212;5.952;2022-10-31T05:16:46;13.05;84.01
72591;SHT31;60625;51.212;5.952;2022-10-31T05:22:13;13.02;83.73
72591;SHT31;60625;51.212;5.952;2022-10-31T05:27:14;12.96;83.49
72591;SHT31;60625;51.212;5.952;2022-10-31T05:32:14;12.90;83.57
72591;SHT31;60625;51.212;5.952;2022-10-31T05:37:34;12.76;83.96
72591;SHT31;60625;51.212;5.952;2022-10-31T05:42:35;12.67;84.24
72591;SHT31;60625;51.212;5.952;2022-10-31T05:47:39;12.65;83.98
72591;SHT31;60625;51.212;5.952;2022-10-31T05:53:12;12.61;83.95
72591;SHT31;60625;51.212;5.952;2022-10-31T05:58:13;12.59;84.11
72591;SHT31;60625;51.212;5.952;2022-10-31T06:03:18;12.59;84.17
72591;SHT31;60625;51.212;5.952;2022-10-31T06:08:26;12.57;84.08
72591;SHT31;60625;51.212;5.952;2022-10-31T06:13:28;12.52;84.08
72591;SHT31;60625;51.212;5.952;2022-10-31T06:18:36;12.43;84.21
72591;SHT31;60625;51.212;5.952;2022-10-31T06:23:37;12.33;84.32
72591;SHT31;60625;51.212;5.952;2022-10-31T06:29:04;12.29;84.45
72591;SHT31;60625;51.212;5.952;2022-10-31T06:34:26;12.24;84.46
72591;SHT31;60625;51.212;5.952;2022-10-31T06:39:27;12.23;84.43
72591;SHT31;60625;51.212;5.952;2022-10-31T06:44:27;12.19;84.39
72591;SHT31;60625;51.212;5.952;2022-10-31T06:49:27;12.12;84.32
72591;SHT31;60625;51.212;5.952;2022-10-31T06:54:33;12.03;84.26
72591;SHT31;60625;51.212;5.952;2022-10-31T06:59:33;12.04;84.33
72591;SHT31;60625;51.212;5.952;2022-10-31T07:04:39;12.06;84.64
72591;SHT31;60625;51.212;5.952;2022-10-31T07:09:41;12.10;84.52
72591;SHT31;60625;51.212;5.952;2022-10-31T07:14:42;12.12;84.74
72591;SHT31;60625;51.212;5.952;2022-10-31T07:19:44;12.15;85.04
72591;SHT31;60625;51.212;5.952;2022-10-31T07:24:45;12.19;84.95
72591;SHT31;60625;51.212;5.952;2022-10-31T07:30:10;12.23;85.11
72591;SHT31;60625;51.212;5.952;2022-10-31T07:35:14;12.26;85.50
72591;SHT31;60625;51.212;5.952;2022-10-31T07:40:22;12.31;85.61
72591;SHT31;60625;51.212;5.952;2022-10-31T07:45:23;12.36;85.64
72591;SHT31;60625;51.212;5.952;2022-10-31T07:50:44;12.42;85.65
72591;SHT31;60625;51.212;5.952;2022-10-31T07:56:11;12.46;85.46
72591;SHT31;60625;51.212;5.952;2022-10-31T08:01:12;12.44;85.31
72591;SHT31;60625;51.212;5.952;2022-10-31T08:06:14;12.44;85.26
72591;SHT31;60625;51.212;5.952;2022-10-31T08:11:34;12.58;85.54
72591;SHT31;60625;51.212;5.952;2022-10-31T08:16:34;12.73;85.80
72591;SHT31;60625;51.212;5.952;2022-10-31T08:21:36;12.85;86.07
72591;SHT31;60625;51.212;5.952;2022-10-31T08:26:37;12.95;86.27
72591;SHT31;60625;51.212;5.952;2022-10-31T08:31:38;13.08;86.59
72591;SHT31;60625;51.212;5.952;2022-10-31T08:36:57;13.21;86.77
72591;SHT31;60625;51.212;5.952;2022-10-31T08:42:04;13.31;86.86
72591;SHT31;60625;51.212;5.952;2022-10-31T08:47:05;13.43;86.95
72591;SHT31;60625;51.212;5.952;2022-10-31T08:52:07;13.58;86.98
72591;SHT31;60625;51.212;5.952;2022-10-31T08:57:10;13.74;87.05
72591;SHT31;60625;51.212;5.952;2022-10-31T09:02:17;13.90;87.38
72591;SHT31;60625;51.212;5.952;2022-10-31T09:07:17;14.09;87.56
72591;SHT31;60625;51.212;5.952;2022-10-31T09:12:18;14.28;87.50
72591;SHT31;60625;51.212;5.952;2022-10-31T09:17:45;14.51;87.37
72591;SHT31;60625;51.212;5.952;2022-10-31T09:23:14;14.73;87.04
72591;SHT31;60625;51.212;5.952;2022-10-31T09:28:19;14.91;86.78
72591;SHT31;60625;51.212;5.952;2022-10-31T09:33:23;15.06;86.58
72591;SHT31;60625;51.212;5.952;2022-10-31T09:38:36;15.18;86.68
72591;SHT31;60625;51.212;5.952;2022-10-31T09:49:24;15.44;85.81
72591;SHT31;60625;51.212;5.952;2022-10-31T09:55:04;15.56;85.71
72591;SHT31;60625;51.212;5.952;2022-10-31T10:00:23;15.73;85.49
72591;SHT31;60625;51.212;5.952;2022-10-31T10:05:26;15.89;85.25
72591;SHT31;60625;51.212;5.952;2022-10-31T10:22:10;16.36;82.89
72591;SHT31;60625;51.212;5.952;2022-10-31T10:27:23;16.44;82.73
72591;SHT31;60625;51.212;5.952;2022-10-31T10:32:46;16.53;82.46
72591;SHT31;60625;51.212;5.952;2022-10-31T10:37:56;16.61;82.05
72591;SHT31;60625;51.212;5.952;2022-10-31T10:48:42;16.73;81.33
72591;SHT31;60625;51.212;5.952;2022-10-31T10:53:59;16.79;80.86
72591;SHT31;60625;51.212;5.952;2022-10-31T10:59:16;16.82;80.49
72591;SHT31;60625;51.212;5.952;2022-10-31T11:09:34;16.99;80.15
72591;SHT31;60625;51.212;5.952;2022-10-31T11:14:43;17.07;80.03
72591;SHT31;60625;51.212;5.952;2022-10-31T11:19:59;17.13;79.63
72591;SHT31;60625;51.212;5.952;2022-10-31T11:25:23;17.19;79.52
72591;SHT31;60625;51.212;5.952;2022-10-31T11:30:26;17.21;78.36
72591;SHT31;60625;51.212;5.952;2022-10-31T11:35:28;17.24;77.31
72591;SHT31;60625;51.212;5.952;2022-10-31T11:40:29;17.27;77.04
72591;SHT31;60625;51.212;5.952;2022-10-31T11:45:31;17.32;76.85
72591;SHT31;60625;51.212;5.952;2022-10-31T11:50:35;17.41;76.64
72591;SHT31;60625;51.212;5.952;2022-10-31T11:55:41;17.49;76.61
72591;SHT31;60625;51.212;5.952;2022-10-31T12:00:47;17.57;76.39
72591;SHT31;60625;51.212;5.952;2022-10-31T12:05:55;17.62;75.97
72591;SHT31;60625;51.212;5.952;2022-10-31T12:22:24;17.79;76.08
72591;SHT31;60625;51.212;5.952;2022-10-31T12:39:23;17.87;75.25
72591;SHT31;60625;51.212;5.952;2022-10-31T12:45:07;17.87;75.47
72591;SHT31;60625;51.212;5.952;2022-10-31T12:50:56;17.89;75.40
72591;SHT31;60625;51.212;5.952;2022-10-31T13:07:08;17.99;75.30
72591;SHT31;60625;51.212;5.952;2022-10-31T13:12:17;18.05;76.01
72591;SHT31;60625;51.212;5.952;2022-10-31T13:17:42;18.07;74.72
72591;SHT31;60625;51.212;5.952;2022-10-31T13:22:47;18.10;75.19
72591;SHT31;60625;51.212;5.952;2022-10-31T13:43:41;18.45;75.47
72591;SHT31;60625;51.212;5.952;2022-10-31T13:54:33;18.53;74.46
72591;SHT31;60625;51.212;5.952;2022-10-31T13:59:36;18.58;73.64
72591;SHT31;60625;51.212;5.952;2022-10-31T14:04:38;18.65;73.37
72591;SHT31;60625;51.212;5.952;2022-10-31T14:09:59;18.72;72.18
72591;SHT31;60625;51.212;5.952;2022-10-31T14:25:26;18.85;70.66
72591;SHT31;60625;51.212;5.952;2022-10-31T14:30:29;18.85;70.81
72591;SHT31;60625;51.212;5.952;2022-10-31T14:36:04;18.78;69.99
72591;SHT31;60625;51.212;5.952;2022-10-31T14:41:22;18.70;70.32
72591;SHT31;60625;51.212;5.952;2022-10-31T14:51:56;18.64;70.92
72591;SHT31;60625;51.212;5.952;2022-10-31T14:57:04;18.56;70.86
72591;SHT31;60625;51.212;5.952;2022-10-31T15:02:25;18.47;70.61
72591;SHT31;60625;51.212;5.952;2022-10-31T15:07:36;18.36;69.87
72591;SHT31;60625;51.212;5.952;2022-10-31T15:12:52;18.28;69.94
72591;SHT31;60625;51.212;5.952;2022-10-31T15:17:55;18.22;70.44
72591;SHT31;60625;51.212;5.952;2022-10-31T15:22:59;18.18;70.35
72591;SHT31;60625;51.212;5.952;2022-10-31T15:28:00;18.13;70.56
72591;SHT31;60625;51.212;5.952;2022-10-31T15:33:00;18.03;70.68
72591;SHT31;60625;51.212;5.952;2022-10-31T15:38:01;17.90;70.88
72591;SHT31;60625;51.212;5.952;2022-10-31T15:43:02;17.75;71.34
72591;SHT31;60625;51.212;5.952;2022-10-31T15:48:16;17.60;71.57
72591;SHT31;60625;51.212;5.952;2022-10-31T15:53:25;17.50;71.58
72591;SHT31;60625;51.212;5.952;2022-10-31T15:58:35;17.42;71.53
72591;SHT31;60625;51.212;5.952;2022-10-31T16:03:44;17.38;71.42
72591;SHT31;60625;51.212;5.952;2022-10-31T16:08:58;17.29;71.57
72591;SHT31;60625;51.212;5.952;2022-10-31T16:19:12;17.19;71.57
72591;SHT31;60625;51.212;5.952;2022-10-31T16:24:23;17.19;71.46
72591;SHT31;60625;51.212;5.952;2022-10-31T16:29:44;17.13;71.68
72591;SHT31;60625;51.212;5.952;2022-10-31T16:34:56;17.02;71.84
72591;SHT31;60625;51.212;5.952;2022-10-31T16:40:16;16.95;72.00
72591;SHT31;60625;51.212;5.952;2022-10-31T16:45:21;16.89;72.14
72591;SHT31;60625;51.212;5.952;2022-10-31T16:50:26;16.86;72.19
72591;SHT31;60625;51.212;5.952;2022-10-31T16:55:27;16.85;72.25
72591;SHT31;60625;51.212;5.952;2022-10-31T17:00:28;16.80;72.46
72591;SHT31;60625;51.212;5.952;2022-10-31T17:05:28;16.78;72.40
72591;SHT31;60625;51.212;5.952;2022-10-31T17:10:32;16.75;72.51
72591;SHT31;60625;51.212;5.952;2022-10-31T17:15:37;16.69;72.65
72591;SHT31;60625;51.212;5.952;2022-10-31T17:20:42;16.60;72.75
72591;SHT31;60625;51.212;5.952;2022-10-31T17:25:44;16.51;72.99
72591;SHT31;60625;51.212;5.952;2022-10-31T17:30:44;16.45;73.13
72591;SHT31;60625;51.212;5.952;2022-10-31T17:35:45;16.43;73.24
72591;SHT31;60625;51.212;5.952;2022-10-31T17:40:45;16.37;73.39
72591;SHT31;60625;51.212;5.952;2022-10-31T17:45:46;16.32;73.54
72591;SHT31;60625;51.212;5.952;2022-10-31T17:50:46;16.29;73.57
72591;SHT31;60625;51.212;5.952;2022-10-31T17:55:47;16.26;73.59
72591;SHT31;60625;51.212;5.952;2022-10-31T18:00:47;16.22;73.65
72591;SHT31;60625;51.212;5.952;2022-10-31T18:05:55;16.20;73.69
72591;SHT31;60625;51.212;5.952;2022-10-31T18:10:58;16.17;73.83
72591;SHT31;60625;51.212;5.952;2022-10-31T18:16:05;16.14;73.95
72591;SHT31;60625;51.212;5.952;2022-10-31T18:21:08;16.09;74.07
72591;SHT31;60625;51.212;5.952;2022-10-31T18:26:09;16.05;74.17
72591;SHT31;60625;51.212;5.952;2022-10-31T18:31:10;15.98;74.25
72591;SHT31;60625;51.212;5.952;2022-10-31T18:36:10;15.91;74.29
72591;SHT31;60625;51.212;5.952;2022-10-31T18:41:12;15.84;74.34
72591;SHT31;60625;51.212;5.952;2022-10-31T18:46:15;15.75;74.50
72591;SHT31;60625;51.212;5.952;2022-10-31T18:51:17;15.74;74.42
72591;SHT31;60625;51.212;5.952;2022-10-31T18:56:18;15.75;74.32
72591;SHT31;60625;51.212;5.952;2022-10-31T19:01:20;15.72;74.18
72591;SHT31;60625;51.212;5.952;2022-10-31T19:06:21;15.70;74.08
72591;SHT31;60625;51.212;5.952;2022-10-31T19:11:26;15.69;73.88
72591;SHT31;60625;51.212;5.952;2022-10-31T19:16:27;15.69;73.68
72591;SHT31;60625;51.212;5.952;2022-10-31T19:21:28;15.70;73.44
72591;SHT31;60625;51.212;5.952;2022-10-31T19:26:31;15.70;73.22
72591;SHT31;60625;51.212;5.952;2022-10-31T19:31:33;15.69;73.18
72591;SHT31;60625;51.212;5.952;2022-10-31T19:36:34;15.66;73.15
72591;SHT31;60625;51.212;5.952;2022-10-31T19:41:35;15.61;73.20
72591;SHT31;60625;51.212;5.952;2022-10-31T19:46:36;15.55;73.29
72591;SHT31;60625;51.212;5.952;2022-10-31T19:51:37;15.48;73.36
72591;SHT31;60625;51.212;5.952;2022-10-31T19:56:37;15.42;73.45
72591;SHT31;60625;51.212;5.952;2022-10-31T20:01:37;15.34;73.59
72591;SHT31;60625;51.212;5.952;2022-10-31T20:06:39;15.25;73.70
72591;SHT31;60625;51.212;5.952;2022-10-31T20:11:41;15.20;73.79
72591;SHT31;60625;51.212;5.952;2022-10-31T20:16:43;15.13;74.00
72591;SHT31;60625;51.212;5.952;2022-10-31T20:21:44;15.05;74.22
72591;SHT31;60625;51.212;5.952;2022-10-31T20:26:45;15.00;74.36
72591;SHT31;60625;51.212;5.952;2022-10-31T20:31:45;14.95;74.30
72591;SHT31;60625;51.212;5.952;2022-10-31T20:36:46;14.90;74.36
72591;SHT31;60625;51.212;5.952;2022-10-31T20:41:47;14.89;74.40
72591;SHT31;60625;51.212;5.952;2022-10-31T20:46:47;14.85;74.46
72591;SHT31;60625;51.212;5.952;2022-10-31T20:51:48;14.80;74.56
72591;SHT31;60625;51.212;5.952;2022-10-31T20:56:49;14.72;74.64
72591;SHT31;60625;51.212;5.952;2022-10-31T21:01:49;14.61;75.09
72591;SHT31;60625;51.212;5.952;2022-10-31T21:06:49;14.53;75.38
72591;SHT31;60625;51.212;5.952;2022-10-31T21:11:50;14.46;75.50
72591;SHT31;60625;51.212;5.952;2022-10-31T21:16:50;14.40;75.60
72591;SHT31;60625;51.212;5.952;2022-10-31T21:21:51;14.32;75.85
72591;SHT31;60625;51.212;5.952;2022-10-31T21:26:52;14.24;76.00
72591;SHT31;60625;51.212;5.952;2022-10-31T21:31:52;14.20;76.11
72591;SHT31;60625;51.212;5.952;2022-10-31T21:36:53;14.16;76.30
72591;SHT31;60625;51.212;5.952;2022-10-31T21:41:53;14.15;76.29
72591;SHT31;60625;51.212;5.952;2022-10-31T21:46:53;14.12;76.40
72591;SHT31;60625;51.212;5.952;2022-10-31T21:51:54;14.11;76.40
72591;SHT31;60625;51.212;5.952;2022-10-31T21:56:55;14.13;76.40
72591;SHT31;60625;51.212;5.952;2022-10-31T22:01:57;14.15;76.57
72591;SHT31;60625;51.212;5.952;2022-10-31T22:06:59;14.17;76.88
72591;SHT31;60625;51.212;5.952;2022-10-31T22:11:59;14.25;76.65
72591;SHT31;60625;51.212;5.952;2022-10-31T22:17:05;14.34;76.46
72591;SHT31;60625;51.212;5.952;2022-10-31T22:22:07;14.40;76.35
72591;SHT31;60625;51.212;5.952;2022-10-31T22:27:07;14.44;76.38
72591;SHT31;60625;51.212;5.952;2022-10-31T22:32:08;14.47;76.41
72591;SHT31;60625;51.212;5.952;2022-10-31T22:37:09;14.50;76.39
72591;SHT31;60625;51.212;5.952;2022-10-31T22:42:10;14.55;76.54
72591;SHT31;60625;51.212;5.952;2022-10-31T22:47:10;14.57;76.97
72591;SHT31;60625;51.212;5.952;2022-10-31T22:52:11;14.57;77.31
72591;SHT31;60625;51.212;5.952;2022-10-31T22:57:11;14.60;77.24
72591;SHT31;60625;51.212;5.952;2022-10-31T23:02:12;14.62;77.23
72591;SHT31;60625;51.212;5.952;2022-10-31T23:07:12;14.65;77.09
72591;SHT31;60625;51.212;5.952;2022-10-31T23:12:12;14.72;76.95
72591;SHT31;60625;51.212;5.952;2022-10-31T23:17:31;14.81;76.82
72591;SHT31;60625;51.212;5.952;2022-10-31T23:22:32;14.87;76.81
72591;SHT31;60625;51.212;5.952;2022-10-31T23:27:32;14.94;76.76
72591;SHT31;60625;51.212;5.952;2022-10-31T23:32:34;15.02;76.68
72591;SHT31;60625;51.212;5.952;2022-10-31T23:37:37;15.13;76.60
72591;SHT31;60625;51.212;5.952;2022-10-31T23:42:38;15.24;76.61
72591;SHT31;60625;51.212;5.952;2022-10-31T23:47:38;15.34;76.60
72591;SHT31;60625;51.212;5.952;2022-10-31T23:52:39;15.46;76.63
72591;SHT31;60625;51.212;5.952;2022-10-31T23:57:39;15.69;76.35
